sensor_id;sensor_type;location;lat;lon;timestamp;temperature;humidity
30983;DHT22;17660;52.578;13.288;2023-09-18T00:00:24;22.00;93.80
30983;DHT22;17660;52.578;13.288;2023-09-18T00:02:51;22.00;93.90
30983;DHT22;17660;52.578;13.288;2023-09-18T00:05:18;22.00;94.00
30983;DHT22;17660;52.578;13.288;2023-09-18T00:07:44;22.00;94.20
30983;DHT22;17660;52.578;13.288;2023-09-18T00:10:11;21.90;94.20
30983;DHT22;17660;52.578;13.288;2023-09-18T00:12:38;21.90;94.30
30983;DHT22;17660;52.578;13.288;2023-09-18T00:15:06;21.90;94.10
30983;DHT22;17660;52.578;13.288;2023-09-18T00:17:35;21.90;93.90
30983;DHT22;17660;52.578;13.288;2023-09-18T00:20:02;21.90;94.00
30983;DHT22;17660;52.578;13.288;2023-09-18T00:22:33;21.90;94.10
30983;DHT22;17660;52.578;13.288;2023-09-18T00:25:00;21.90;94.10
30983;DHT22;17660;52.578;13.288;2023-09-18T00:27:28;21.90;94.10
30983;DHT22;17660;52.578;13.288;2023-09-18T00:29:55;21.90;94.20
30983;DHT22;17660;52.578;13.288;2023-09-18T00:32:21;21.90;94.10
30983;DHT22;17660;52.578;13.288;2023-09-18T00:34:48;21.90;94.10
30983;DHT22;17660;52.578;13.288;2023-09-18T00:37:15;21.90;93.90
30983;DHT22;17660;52.578;13.288;2023-09-18T00:39:43;21.90;93.80
30983;DHT22;17660;52.578;13.288;2023-09-18T00:42:10;21.90;93.80
30983;DHT22;17660;52.578;13.288;2023-09-18T00:44:40;21.80;94.00
30983;DHT22;17660;52.578;13.288;2023-09-18T00:47:09;21.80;94.10
30983;DHT22;17660;52.578;13.288;2023-09-18T00:49:37;21.90;93.90
30983;DHT22;17660;52.578;13.288;2023-09-18T00:52:05;21.80;93.90
30983;DHT22;17660;52.578;13.288;2023-09-18T00:54:33;21.80;94.00
30983;DHT22;17660;52.578;13.288;2023-09-18T00:57:01;21.80;94.00
30983;DHT22;17660;52.578;13.288;2023-09-18T00:59:27;21.80;94.10
30983;DHT22;17660;52.578;13.288;2023-09-18T01:01:54;21.80;94.00
30983;DHT22;17660;52.578;13.288;2023-09-18T01:04:21;21.80;93.90
30983;DHT22;17660;52.578;13.288;2023-09-18T01:06:48;21.80;94.10
30983;DHT22;17660;52.578;13.288;2023-09-18T01:09:16;21.80;94.10
30983;DHT22;17660;52.578;13.288;2023-09-18T01:12:01;21.80;94.30
30983;DHT22;17660;52.578;13.288;2023-09-18T01:16:57;21.70;94.20
30983;DHT22;17660;52.578;13.288;2023-09-18T01:19:44;21.70;94.30
30983;DHT22;17660;52.578;13.288;2023-09-18T01:22:13;21.70;94.40
30983;DHT22;17660;52.578;13.288;2023-09-18T01:24:40;21.70;94.20
30983;DHT22;17660;52.578;13.288;2023-09-18T01:27:09;21.70;94.30
30983;DHT22;17660;52.578;13.288;2023-09-18T01:29:36;21.70;94.30
30983;DHT22;17660;52.578;13.288;2023-09-18T01:32:03;21.70;94.40
30983;DHT22;17660;52.578;13.288;2023-09-18T01:34:31;21.60;94.40
30983;DHT22;17660;52.578;13.288;2023-09-18T01:36:59;21.70;94.50
30983;DHT22;17660;52.578;13.288;2023-09-18T01:39:27;21.60;94.30
30983;DHT22;17660;52.578;13.288;2023-09-18T01:42:00;21.60;94.40
30983;DHT22;17660;52.578;13.288;2023-09-18T01:44:28;21.60;94.40
30983;DHT22;17660;52.578;13.288;2023-09-18T01:46:56;21.60;94.40
30983;DHT22;17660;52.578;13.288;2023-09-18T01:49:37;21.50;94.30
30983;DHT22;17660;52.578;13.288;2023-09-18T01:52:04;21.50;94.40
30983;DHT22;17660;52.578;13.288;2023-09-18T01:54:31;21.60;94.50
30983;DHT22;17660;52.578;13.288;2023-09-18T01:56:58;21.50;94.30
30983;DHT22;17660;52.578;13.288;2023-09-18T09:22:23;24.60;93.00
30983;DHT22;17660;52.578;13.288;2023-09-18T09:24:50;24.60;92.70
30983;DHT22;17660;52.578;13.288;2023-09-18T09:27:16;24.70;92.60
30983;DHT22;17660;52.578;13.288;2023-09-18T09:29:57;24.70;92.70
30983;DHT22;17660;52.578;13.288;2023-09-18T09:32:24;24.70;92.60
30983;DHT22;17660;52.578;13.288;2023-09-18T09:34:52;24.70;93.70
30983;DHT22;17660;52.578;13.288;2023-09-18T09:37:29;24.80;93.10
30983;DHT22;17660;52.578;13.288;2023-09-18T09:39:56;24.70;92.70
30983;DHT22;17660;52.578;13.288;2023-09-18T09:42:23;24.90;93.10
30983;DHT22;17660;52.578;13.288;2023-09-18T09:45:00;24.90;92.40
30983;DHT22;17660;52.578;13.288;2023-09-18T09:47:27;25.00;92.10
30983;DHT22;17660;52.578;13.288;2023-09-18T09:49:53;25.00;92.50
30983;DHT22;17660;52.578;13.288;2023-09-18T09:52:21;25.00;93.70
30983;DHT22;17660;52.578;13.288;2023-09-18T09:54:50;25.10;92.00
30983;DHT22;17660;52.578;13.288;2023-09-18T09:57:17;25.20;92.40
30983;DHT22;17660;52.578;13.288;2023-09-18T09:59:43;25.20;92.50
30983;DHT22;17660;52.578;13.288;2023-09-18T10:02:11;25.20;92.40
30983;DHT22;17660;52.578;13.288;2023-09-18T10:04:46;25.30;92.00
30983;DHT22;17660;52.578;13.288;2023-09-18T10:07:15;25.40;92.90
30983;DHT22;17660;52.578;13.288;2023-09-18T10:09:43;25.50;91.40
30983;DHT22;17660;52.578;13.288;2023-09-18T10:12:11;25.50;91.80
30983;DHT22;17660;52.578;13.288;2023-09-18T10:14:38;25.50;91.10
30983;DHT22;17660;52.578;13.288;2023-09-18T10:17:25;25.60;90.60
30983;DHT22;17660;52.578;13.288;2023-09-18T10:20:01;25.60;90.80
30983;DHT22;17660;52.578;13.288;2023-09-18T10:22:45;25.60;90.40
30983;DHT22;17660;52.578;13.288;2023-09-18T10:25:20;25.70;90.60
30983;DHT22;17660;52.578;13.288;2023-09-18T10:27:49;25.90;90.60
30983;DHT22;17660;52.578;13.288;2023-09-18T10:30:16;26.00;91.00
30983;DHT22;17660;52.578;13.288;2023-09-18T10:32:45;26.10;91.70
30983;DHT22;17660;52.578;13.288;2023-09-18T10:35:12;26.00;90.40
30983;DHT22;17660;52.578;13.288;2023-09-18T10:37:39;26.00;90.70
30983;DHT22;17660;52.578;13.288;2023-09-18T10:40:08;26.10;89.90
30983;DHT22;17660;52.578;13.288;2023-09-18T10:42:35;26.10;91.40
30983;DHT22;17660;52.578;13.288;2023-09-18T10:45:04;26.10;90.30
30983;DHT22;17660;52.578;13.288;2023-09-18T10:47:33;26.20;89.30
30983;DHT22;17660;52.578;13.288;2023-09-18T10:50:01;26.30;90.60
30983;DHT22;17660;52.578;13.288;2023-09-18T10:52:28;26.60;88.10
30983;DHT22;17660;52.578;13.288;2023-09-18T10:54:55;26.80;89.10
30983;DHT22;17660;52.578;13.288;2023-09-18T10:57:21;26.80;86.90
30983;DHT22;17660;52.578;13.288;2023-09-18T10:59:50;26.70;88.10
30983;DHT22;17660;52.578;13.288;2023-09-18T11:02:20;26.60;87.80
30983;DHT22;17660;52.578;13.288;2023-09-18T11:04:47;26.50;90.40
30983;DHT22;17660;52.578;13.288;2023-09-18T11:07:21;26.30;87.30
30983;DHT22;17660;52.578;13.288;2023-09-18T11:09:48;26.30;87.50
30983;DHT22;17660;52.578;13.288;2023-09-18T11:12:15;26.20;89.00
30983;DHT22;17660;52.578;13.288;2023-09-18T11:14:42;26.20;88.50
30983;DHT22;17660;52.578;13.288;2023-09-18T11:20:37;26.10;88.40
30983;DHT22;17660;52.578;13.288;2023-09-18T11:22:48;26.00;89.90
30983;DHT22;17660;52.578;13.288;2023-09-18T11:25:28;26.00;90.40
30983;DHT22;17660;52.578;13.288;2023-09-18T11:27:56;26.00;90.70
30983;DHT22;17660;52.578;13.288;2023-09-18T11:30:23;26.00;91.50
30983;DHT22;17660;52.578;13.288;2023-09-18T11:32:52;25.90;89.90
30983;DHT22;17660;52.578;13.288;2023-09-18T11:35:20;25.90;89.80
30983;DHT22;17660;52.578;13.288;2023-09-18T11:37:47;25.90;89.00
30983;DHT22;17660;52.578;13.288;2023-09-18T11:40:30;25.90;89.60
30983;DHT22;17660;52.578;13.288;2023-09-18T11:45:48;25.80;89.70
30983;DHT22;17660;52.578;13.288;2023-09-18T11:48:16;25.80;89.70
30983;DHT22;17660;52.578;13.288;2023-09-18T11:50:44;25.80;90.20
30983;DHT22;17660;52.578;13.288;2023-09-18T11:53:11;25.70;90.50
30983;DHT22;17660;52.578;13.288;2023-09-18T11:55:39;25.70;90.20
30983;DHT22;17660;52.578;13.288;2023-09-18T11:58:06;25.70;90.00
30983;DHT22;17660;52.578;13.288;2023-09-18T12:00:35;25.70;90.00
30983;DHT22;17660;52.578;13.288;2023-09-18T12:03:15;25.80;90.90
30983;DHT22;17660;52.578;13.288;2023-09-18T12:05:53;25.70;90.40
30983;DHT22;17660;52.578;13.288;2023-09-18T12:08:22;25.70;90.00
30983;DHT22;17660;52.578;13.288;2023-09-18T12:10:50;25.80;90.10
30983;DHT22;17660;52.578;13.288;2023-09-18T12:13:17;25.80;91.10
30983;DHT22;17660;52.578;13.288;2023-09-18T12:15:44;25.80;90.20
30983;DHT22;17660;52.578;13.288;2023-09-18T12:18:11;25.80;90.50
30983;DHT22;17660;52.578;13.288;2023-09-18T12:20:44;25.90;90.30
30983;DHT22;17660;52.578;13.288;2023-09-18T12:23:11;26.00;90.10
30983;DHT22;17660;52.578;13.288;2023-09-18T12:25:38;26.00;90.90
30983;DHT22;17660;52.578;13.288;2023-09-18T12:28:05;26.00;90.10
30983;DHT22;17660;52.578;13.288;2023-09-18T12:30:33;26.20;89.10
30983;DHT22;17660;52.578;13.288;2023-09-18T12:32:59;26.20;88.20
30983;DHT22;17660;52.578;13.288;2023-09-18T12:35:27;26.20;89.60
30983;DHT22;17660;52.578;13.288;2023-09-18T12:37:57;26.30;90.30
30983;DHT22;17660;52.578;13.288;2023-09-18T12:40:25;26.20;87.70
30983;DHT22;17660;52.578;13.288;2023-09-18T12:42:53;26.20;88.10
30983;DHT22;17660;52.578;13.288;2023-09-18T12:45:21;26.20;87.40
30983;DHT22;17660;52.578;13.288;2023-09-18T12:47:48;26.10;88.50
30983;DHT22;17660;52.578;13.288;2023-09-18T12:50:15;26.10;88.00
30983;DHT22;17660;52.578;13.288;2023-09-18T12:52:42;26.10;88.60
30983;DHT22;17660;52.578;13.288;2023-09-18T12:55:08;26.10;88.70
30983;DHT22;17660;52.578;13.288;2023-09-18T12:57:46;26.10;88.70
30983;DHT22;17660;52.578;13.288;2023-09-18T13:00:13;26.00;88.70
30983;DHT22;17660;52.578;13.288;2023-09-18T13:02:44;26.00;88.60
30983;DHT22;17660;52.578;13.288;2023-09-18T13:05:11;25.90;88.70
30983;DHT22;17660;52.578;13.288;2023-09-18T13:07:43;25.90;88.70
30983;DHT22;17660;52.578;13.288;2023-09-18T13:10:11;25.80;88.40
30983;DHT22;17660;52.578;13.288;2023-09-18T13:12:46;25.80;88.40
30983;DHT22;17660;52.578;13.288;2023-09-18T13:15:13;25.80;88.60
30983;DHT22;17660;52.578;13.288;2023-09-18T13:17:44;25.80;88.90
30983;DHT22;17660;52.578;13.288;2023-09-18T13:20:15;25.80;89.30
30983;DHT22;17660;52.578;13.288;2023-09-18T13:22:42;25.80;89.50
30983;DHT22;17660;52.578;13.288;2023-09-18T13:25:18;25.70;89.50
30983;DHT22;17660;52.578;13.288;2023-09-18T13:27:46;25.70;90.60
30983;DHT22;17660;52.578;13.288;2023-09-18T13:30:12;25.60;90.00
30983;DHT22;17660;52.578;13.288;2023-09-18T13:32:46;25.60;90.00
30983;DHT22;17660;52.578;13.288;2023-09-18T13:35:17;25.60;89.70
30983;DHT22;17660;52.578;13.288;2023-09-18T13:37:44;25.60;89.70
30983;DHT22;17660;52.578;13.288;2023-09-18T13:40:11;25.60;90.10
30983;DHT22;17660;52.578;13.288;2023-09-18T13:42:38;25.50;90.40
30983;DHT22;17660;52.578;13.288;2023-09-18T13:45:05;25.50;90.70
30983;DHT22;17660;52.578;13.288;2023-09-18T13:47:33;25.40;90.70
30983;DHT22;17660;52.578;13.288;2023-09-18T13:50:00;25.30;91.30
30983;DHT22;17660;52.578;13.288;2023-09-18T13:52:27;25.30;91.70
30983;DHT22;17660;52.578;13.288;2023-09-18T13:54:55;25.20;91.90
30983;DHT22;17660;52.578;13.288;2023-09-18T13:57:22;25.20;92.60
30983;DHT22;17660;52.578;13.288;2023-09-18T13:59:49;25.10;92.40
30983;DHT22;17660;52.578;13.288;2023-09-18T14:02:16;25.10;92.30
30983;DHT22;17660;52.578;13.288;2023-09-18T14:04:43;25.10;92.50
30983;DHT22;17660;52.578;13.288;2023-09-18T14:07:10;25.10;92.70
30983;DHT22;17660;52.578;13.288;2023-09-18T14:09:37;25.00;92.40
30983;DHT22;17660;52.578;13.288;2023-09-18T14:12:05;25.00;92.70
30983;DHT22;17660;52.578;13.288;2023-09-18T14:14:33;25.00;92.70
30983;DHT22;17660;52.578;13.288;2023-09-18T14:17:02;25.00;92.10
30983;DHT22;17660;52.578;13.288;2023-09-18T14:19:30;25.00;92.20
30983;DHT22;17660;52.578;13.288;2023-09-18T14:21:57;25.00;92.20
30983;DHT22;17660;52.578;13.288;2023-09-18T14:24:23;25.00;92.00
30983;DHT22;17660;52.578;13.288;2023-09-18T14:26:52;25.10;91.90
30983;DHT22;17660;52.578;13.288;2023-09-18T14:29:19;25.10;92.10
30983;DHT22;17660;52.578;13.288;2023-09-18T14:31:46;25.10;92.00
30983;DHT22;17660;52.578;13.288;2023-09-18T14:34:13;25.10;92.40
30983;DHT22;17660;52.578;13.288;2023-09-18T14:36:40;25.10;92.20
30983;DHT22;17660;52.578;13.288;2023-09-18T14:39:06;25.00;92.10
30983;DHT22;17660;52.578;13.288;2023-09-18T14:41:36;25.00;92.00
30983;DHT22;17660;52.578;13.288;2023-09-18T14:44:03;24.90;91.90
30983;DHT22;17660;52.578;13.288;2023-09-18T14:46:31;24.90;91.90
30983;DHT22;17660;52.578;13.288;2023-09-18T14:49:00;24.90;91.90
30983;DHT22;17660;52.578;13.288;2023-09-18T14:51:27;24.90;91.40
30983;DHT22;17660;52.578;13.288;2023-09-18T14:53:57;24.90;91.90
30983;DHT22;17660;52.578;13.288;2023-09-18T14:56:24;24.90;91.40
30983;DHT22;17660;52.578;13.288;2023-09-18T14:58:51;24.80;91.40
30983;DHT22;17660;52.578;13.288;2023-09-18T15:01:22;24.80;91.50
30983;DHT22;17660;52.578;13.288;2023-09-18T15:03:48;24.80;91.20
30983;DHT22;17660;52.578;13.288;2023-09-18T15:06:16;24.80;91.40
30983;DHT22;17660;52.578;13.288;2023-09-18T15:08:43;24.80;91.30
30983;DHT22;17660;52.578;13.288;2023-09-18T15:11:10;24.80;91.30
30983;DHT22;17660;52.578;13.288;2023-09-18T15:13:37;24.80;91.30
30983;DHT22;17660;52.578;13.288;2023-09-18T15:16:05;24.80;91.10
30983;DHT22;17660;52.578;13.288;2023-09-18T15:18:33;24.80;91.20
30983;DHT22;17660;52.578;13.288;2023-09-18T15:21:00;24.80;91.10
30983;DHT22;17660;52.578;13.288;2023-09-18T15:23:27;24.70;91.50
30983;DHT22;17660;52.578;13.288;2023-09-18T15:25:54;24.80;91.40
30983;DHT22;17660;52.578;13.288;2023-09-18T15:28:25;24.80;91.50
30983;DHT22;17660;52.578;13.288;2023-09-18T15:30:54;24.80;91.70
30983;DHT22;17660;52.578;13.288;2023-09-18T15:33:21;24.80;91.70
30983;DHT22;17660;52.578;13.288;2023-09-18T15:35:52;24.70;91.60
30983;DHT22;17660;52.578;13.288;2023-09-18T15:38:19;24.70;91.60
30983;DHT22;17660;52.578;13.288;2023-09-18T15:40:48;24.70;91.60
30983;DHT22;17660;52.578;13.288;2023-09-18T15:43:15;24.70;91.80
30983;DHT22;17660;52.578;13.288;2023-09-18T15:45:44;24.70;91.80
30983;DHT22;17660;52.578;13.288;2023-09-18T15:48:11;24.60;91.90
30983;DHT22;17660;52.578;13.288;2023-09-18T15:50:38;24.60;92.10
30983;DHT22;17660;52.578;13.288;2023-09-18T15:53:05;24.60;92.30
30983;DHT22;17660;52.578;13.288;2023-09-18T15:55:31;24.60;92.00
30983;DHT22;17660;52.578;13.288;2023-09-18T15:57:58;24.50;92.30
30983;DHT22;17660;52.578;13.288;2023-09-18T16:00:24;24.40;92.30
30983;DHT22;17660;52.578;13.288;2023-09-18T16:02:51;24.50;92.40
30983;DHT22;17660;52.578;13.288;2023-09-18T16:05:18;24.40;92.60
30983;DHT22;17660;52.578;13.288;2023-09-18T16:07:51;24.40;92.60
30983;DHT22;17660;52.578;13.288;2023-09-18T16:10:18;24.30;92.70
30983;DHT22;17660;52.578;13.288;2023-09-18T16:12:46;24.30;92.90
30983;DHT22;17660;52.578;13.288;2023-09-18T16:15:12;24.30;93.30
30983;DHT22;17660;52.578;13.288;2023-09-18T16:17:40;24.20;93.70
30983;DHT22;17660;52.578;13.288;2023-09-18T16:20:07;24.20;94.10
30983;DHT22;17660;52.578;13.288;2023-09-18T16:22:34;24.20;94.40
30983;DHT22;17660;52.578;13.288;2023-09-18T16:25:00;24.00;94.50
30983;DHT22;17660;52.578;13.288;2023-09-18T16:27:27;23.90;95.00
30983;DHT22;17660;52.578;13.288;2023-09-18T16:29:54;23.90;95.30
30983;DHT22;17660;52.578;13.288;2023-09-18T16:32:21;23.80;95.80
30983;DHT22;17660;52.578;13.288;2023-09-18T16:34:48;23.70;96.20
30983;DHT22;17660;52.578;13.288;2023-09-18T16:37:15;23.60;96.60
30983;DHT22;17660;52.578;13.288;2023-09-18T16:39:42;23.50;96.80
30983;DHT22;17660;52.578;13.288;2023-09-18T16:42:10;23.50;96.90
30983;DHT22;17660;52.578;13.288;2023-09-18T16:44:37;23.40;97.20
30983;DHT22;17660;52.578;13.288;2023-09-18T16:47:06;23.40;97.50
30983;DHT22;17660;52.578;13.288;2023-09-18T16:49:33;23.40;97.80
30983;DHT22;17660;52.578;13.288;2023-09-18T16:51:59;23.30;98.40
30983;DHT22;17660;52.578;13.288;2023-09-18T16:54:26;23.20;98.30
30983;DHT22;17660;52.578;13.288;2023-09-18T16:56:53;23.20;98.80
30983;DHT22;17660;52.578;13.288;2023-09-18T16:59:19;23.20;98.90
30983;DHT22;17660;52.578;13.288;2023-09-18T17:01:48;23.10;99.00
30983;DHT22;17660;52.578;13.288;2023-09-18T17:04:15;23.10;99.40
30983;DHT22;17660;52.578;13.288;2023-09-18T17:06:42;23.00;99.60
30983;DHT22;17660;52.578;13.288;2023-09-18T17:09:09;23.00;99.60
30983;DHT22;17660;52.578;13.288;2023-09-18T17:11:37;22.90;99.70
30983;DHT22;17660;52.578;13.288;2023-09-18T17:14:03;22.80;99.70
30983;DHT22;17660;52.578;13.288;2023-09-18T17:16:30;22.80;99.90
